Time;durP1;ratioP1;P1;durP2;ratioP2;P2;SDS_P1;SDS_P2;PMS_P1;PMS_P2;Temp;Humidity;BMP_temperature;BMP_pressure;BME280_temperature;BME280_humidity;BME280_pressure;Samples;Min_cycle;Max_cycle;Signal;HPM_P1;HPM_P2
2022/10/10 00:02:40;;;;;;;13.32;7.47;;;;;;;8.76;99.86;101040.45;2825605;82;20994;-90
2022/10/10 00:06:41;;;;;;;12.58;6.78;;;;;;;8.73;100.00;101040.66;2837836;82;21569;-90
2022/10/10 00:10:43;;;;;;;14.45;8.23;;;;;;;8.65;100.00;101039.34;2813086;82;21005;-90
2022/10/10 00:14:44;;;;;;;12.90;7.67;;;;;;;8.58;100.00;101037.99;2835995;82;21025;-89
2022/10/10 00:18:45;;;;;;;14.30;7.12;;;;;;;8.56;100.00;101041.22;2833541;82;21088;-89
2022/10/10 00:22:47;;;;;;;15.40;8.45;;;;;;;8.52;100.00;101030.42;2830252;82;21132;-88
2022/10/10 00:26:48;;;;;;;10.30;7.80;;;;;;;8.41;100.00;101028.40;2808527;83;21727;-88
2022/10/10 00:30:49;;;;;;;12.90;8.93;;;;;;;8.36;100.00;101026.51;2765973;82;21070;-89
2022/10/10 00:34:51;;;;;;;10.58;7.20;;;;;;;8.41;100.00;101010.67;2816123;81;21065;-90
2022/10/10 00:38:52;;;;;;;9.80;7.83;;;;;;;8.50;100.00;101009.78;2826975;82;21054;-91
2022/10/10 00:42:53;;;;;;;13.90;7.42;;;;;;;8.51;100.00;100996.91;2745717;82;21041;-89
2022/10/10 00:46:54;;;;;;;12.05;7.22;;;;;;;8.52;100.00;101002.58;2827835;81;21120;-90
2022/10/10 00:51:12;;;;;;;11.22;8.23;;;;;;;8.55;100.00;101004.58;2830941;82;21029;-88
2022/10/10 00:55:14;;;;;;;10.45;7.62;;;;;;;8.61;99.91;101002.00;2831246;82;21076;-90
2022/10/10 00:59:17;;;;;;;14.58;7.15;;;;;;;8.57;99.82;100989.42;2832510;82;21007;-90
2022/10/10 01:03:20;;;;;;;12.70;9.28;;;;;;;8.53;100.00;100981.75;2833951;82;21116;-88
2022/10/10 01:07:25;;;;;;;16.02;10.45;;;;;;;8.58;99.81;100982.30;2811037;81;21587;-88
2022/10/10 01:11:50;;;;;;;15.23;8.65;;;;;;;8.56;99.79;100969.16;2835027;81;21076;-88
2022/10/10 01:15:59;;;;;;;13.08;7.75;;;;;;;8.52;99.99;100964.97;2833600;82;21032;-89
2022/10/10 01:20:22;;;;;;;14.40;10.85;;;;;;;8.48;100.00;100962.59;2794594;82;21572;-90
2022/10/10 01:24:44;;;;;;;13.18;9.58;;;;;;;8.42;100.00;100961.17;2810788;82;21056;-92
2022/10/10 01:29:09;;;;;;;13.45;8.58;;;;;;;8.42;100.00;100952.72;2829622;81;21113;-92
2022/10/10 01:33:18;;;;;;;20.95;14.65;;;;;;;8.37;100.00;100948.19;2837715;82;21079;-92
2022/10/10 01:37:25;;;;;;;21.97;12.75;;;;;;;8.29;100.00;100942.03;2821623;81;21560;-92
2022/10/10 01:41:37;;;;;;;16.07;11.28;;;;;;;8.30;100.00;100930.97;2839639;82;21602;-93
2022/10/10 01:45:51;;;;;;;18.95;8.85;;;;;;;8.16;100.00;100934.48;2827943;81;21068;-92
2022/10/10 01:49:57;;;;;;;20.20;12.73;;;;;;;8.24;100.00;100920.73;2795120;83;21088;-90
2022/10/10 01:54:21;;;;;;;14.83;9.85;;;;;;;8.25;100.00;100923.76;2835287;82;21051;-91
2022/10/10 01:58:49;;;;;;;14.63;9.03;;;;;;;8.25;100.00;100917.13;2834435;82;21095;-90
2022/10/10 02:03:10;;;;;;;19.40;11.22;;;;;;;8.27;100.00;100904.66;2828369;82;21467;-91
2022/10/10 02:07:23;;;;;;;17.12;11.10;;;;;;;8.24;100.00;100899.07;2830291;81;21082;-91
2022/10/10 02:11:26;;;;;;;14.73;10.53;;;;;;;8.17;100.00;100894.24;2825715;82;21100;-91
2022/10/10 02:15:35;;;;;;;21.80;11.68;;;;;;;8.21;100.00;100897.08;2850161;80;21734;-91
2022/10/10 02:19:44;;;;;;;40.63;11.50;;;;;;;8.21;100.00;100890.45;2859186;80;21392;-90
2022/10/10 02:23:50;;;;;;;18.37;9.85;;;;;;;8.12;100.00;100888.77;2824023;81;21085;-91
2022/10/10 02:28:08;;;;;;;18.37;9.65;;;;;;;8.06;100.00;100887.83;2830323;82;21785;-91
2022/10/10 02:32:15;;;;;;;23.77;13.43;;;;;;;7.93;100.00;100888.19;2820374;82;21040;-93
2022/10/10 02:36:19;;;;;;;17.70;12.50;;;;;;;7.86;100.00;100886.39;2828646;82;21033;-93
2022/10/10 02:40:25;;;;;;;17.32;10.72;;;;;;;7.71;100.00;100878.91;2814127;82;21405;-93
2022/10/10 02:44:27;;;;;;;18.40;12.03;;;;;;;7.72;100.00;100883.25;2827739;82;21347;-92
2022/10/10 02:48:28;;;;;;;18.55;11.33;;;;;;;7.63;100.00;100874.06;2813925;82;21017;-92
2022/10/10 02:52:29;;;;;;;18.10;12.95;;;;;;;7.64;100.00;100873.58;2800465;82;21063;-91
2022/10/10 02:56:30;;;;;;;18.75;11.68;;;;;;;7.66;100.00;100878.30;2747512;84;21692;-90
2022/10/10 03:00:31;;;;;;;17.30;11.30;;;;;;;7.65;100.00;100875.28;2752222;83;21594;-89
2022/10/10 03:04:34;;;;;;;17.52;12.15;;;;;;;7.70;100.00;100865.28;2822505;81;21076;-90
2022/10/10 03:08:39;;;;;;;20.27;12.30;;;;;;;7.78;100.00;100856.39;2739214;85;21022;-91
2022/10/10 03:12:40;;;;;;;16.20;10.93;;;;;;;7.85;100.00;100855.05;2755809;84;21027;-90
2022/10/10 03:16:41;;;;;;;17.25;11.15;;;;;;;7.86;100.00;100850.63;2791364;82;21170;-90
2022/10/10 03:20:52;;;;;;;22.60;14.65;;;;;;;7.79;100.00;100850.14;2809971;82;21090;-90
2022/10/10 03:24:53;;;;;;;16.55;10.75;;;;;;;7.73;100.00;100850.53;2798184;83;21589;-90
2022/10/10 03:28:55;;;;;;;14.38;11.75;;;;;;;7.57;100.00;100849.30;2797033;82;21519;-90
2022/10/10 03:32:56;;;;;;;19.85;12.90;;;;;;;7.40;100.00;100844.53;2806515;81;21684;-90
2022/10/10 03:36:57;;;;;;;15.48;12.03;;;;;;;7.23;100.00;100849.48;2819863;82;21567;-90
2022/10/10 03:40:58;;;;;;;20.23;13.72;;;;;;;7.19;100.00;100837.38;2826499;82;21631;-90
2022/10/10 03:44:59;;;;;;;18.75;14.35;;;;;;;7.25;100.00;100830.88;2834854;82;22397;-89
2022/10/10 03:49:00;;;;;;;22.98;15.48;;;;;;;7.28;100.00;100829.38;2849351;81;21635;-89
2022/10/10 03:53:02;;;;;;;23.92;14.75;;;;;;;7.32;100.00;100822.11;2826411;82;21524;-90
2022/10/10 03:57:03;;;;;;;22.27;12.35;;;;;;;7.35;100.00;100812.66;2838454;81;21024;-89
2022/10/10 04:01:06;;;;;;;20.25;13.50;;;;;;;7.33;100.00;100809.26;2849790;82;21399;-90
2022/10/10 04:05:08;;;;;;;25.20;14.38;;;;;;;7.28;100.00;100806.42;2810563;83;21036;-89
2022/10/10 04:09:09;;;;;;;27.20;14.23;;;;;;;7.36;100.00;100808.58;2843804;82;21592;-91
2022/10/10 04:13:10;;;;;;;20.30;14.70;;;;;;;7.35;100.00;100804.72;2850216;81;21610;-91
2022/10/10 04:17:11;;;;;;;24.77;14.93;;;;;;;7.35;100.00;100802.91;2845220;82;21542;-91
2022/10/10 04:21:13;;;;;;;26.80;13.28;;;;;;;7.39;100.00;100796.52;2841482;82;21579;-92
2022/10/10 04:25:14;;;;;;;29.40;17.60;;;;;;;7.33;100.00;100791.56;2854338;81;21496;-92
2022/10/10 04:29:15;;;;;;;20.97;16.37;;;;;;;7.38;100.00;100784.69;2842975;81;21064;-91
2022/10/10 04:33:16;;;;;;;24.37;17.12;;;;;;;7.33;100.00;100785.44;2843327;81;21065;-91
2022/10/10 04:37:17;;;;;;;26.17;18.05;;;;;;;7.39;100.00;100785.06;2867665;81;21074;-90
2022/10/10 04:41:18;;;;;;;23.73;15.75;;;;;;;7.38;100.00;100776.73;2842226;82;21071;-91
2022/10/10 04:45:20;;;;;;;24.92;19.02;;;;;;;7.29;100.00;100781.66;2844116;82;21063;-93
2022/10/10 04:49:22;;;;;;;24.72;17.30;;;;;;;7.28;100.00;100769.37;2840119;82;21071;-92
2022/10/10 04:53:24;;;;;;;25.60;16.85;;;;;;;7.22;100.00;100768.40;2840110;82;21036;-93
2022/10/10 04:57:25;;;;;;;28.25;19.45;;;;;;;7.13;100.00;100756.57;2826217;82;21082;-92
2022/10/10 05:01:27;;;;;;;35.43;24.37;;;;;;;7.12;100.00;100759.33;2824237;82;21076;-91
2022/10/10 05:05:28;;;;;;;30.68;21.82;;;;;;;7.15;100.00;100750.71;2843007;82;21050;-93
2022/10/10 05:09:29;;;;;;;28.27;17.85;;;;;;;7.09;100.00;100747.12;2825467;81;21044;-93
2022/10/10 05:13:30;;;;;;;31.17;18.35;;;;;;;7.00;100.00;100749.02;2774894;84;21116;-91
2022/10/10 05:17:32;;;;;;;24.32;16.60;;;;;;;6.93;100.00;100751.62;2826317;81;21395;-93
2022/10/10 05:21:33;;;;;;;32.63;16.60;;;;;;;6.76;100.00;100750.81;2822002;83;21084;-93
2022/10/10 05:25:34;;;;;;;27.42;16.10;;;;;;;6.72;100.00;100746.66;2841981;81;21032;-93
2022/10/10 05:29:35;;;;;;;31.77;15.65;;;;;;;6.78;100.00;100738.84;2797847;82;21077;-93
2022/10/10 05:33:36;;;;;;;23.18;17.82;;;;;;;6.77;100.00;100735.81;2839769;82;21007;-93
2022/10/10 05:37:38;;;;;;;22.42;15.15;;;;;;;6.79;100.00;100733.93;2835189;82;21040;-94
2022/10/10 05:41:39;;;;;;;27.15;16.23;;;;;;;6.70;100.00;100740.15;2826410;82;21004;-93
2022/10/10 05:45:40;;;;;;;27.87;16.80;;;;;;;6.86;100.00;100740.09;2865555;82;20997;-91
2022/10/10 05:49:41;;;;;;;26.75;15.93;;;;;;;7.01;100.00;100732.20;2817259;82;21053;-93
2022/10/10 05:53:42;;;;;;;35.05;18.73;;;;;;;7.27;100.00;100737.70;2837801;82;21594;-92
2022/10/10 05:57:43;;;;;;;24.43;16.50;;;;;;;7.48;100.00;100735.55;2827422;82;21025;-91
2022/10/10 06:01:44;;;;;;;40.17;24.27;;;;;;;7.60;100.00;100731.28;2826027;81;21166;-92
2022/10/10 06:05:50;;;;;;;38.75;22.10;;;;;;;7.71;100.00;100726.64;2785778;83;21070;-92
2022/10/10 06:09:51;;;;;;;32.98;21.05;;;;;;;7.91;100.00;100732.47;2769907;83;21542;-92
2022/10/10 06:13:56;;;;;;;23.83;19.12;;;;;;;8.05;100.00;100723.14;2771429;84;21723;-93
2022/10/10 06:17:57;;;;;;;25.03;20.07;;;;;;;8.11;100.00;100724.55;2773641;84;21089;-93
2022/10/10 06:21:58;;;;;;;20.62;15.60;;;;;;;8.18;100.00;100722.36;2782507;84;21379;-92
2022/10/10 06:25:59;;;;;;;22.37;15.05;;;;;;;8.37;100.00;100718.88;2846107;81;21166;-92
2022/10/10 06:30:00;;;;;;;25.05;15.35;;;;;;;8.26;100.00;100717.44;2845948;82;21080;-91
2022/10/10 06:34:02;;;;;;;21.93;16.00;;;;;;;8.53;100.00;100716.59;2825595;81;21063;-92
2022/10/10 06:38:03;;;;;;;29.75;16.42;;;;;;;8.81;100.00;100703.65;2824473;81;21057;-91
2022/10/10 06:42:04;;;;;;;20.20;13.25;;;;;;;8.98;98.20;100709.61;2822570;82;21544;-92
2022/10/10 06:46:06;;;;;;;17.05;12.60;;;;;;;9.08;97.58;100702.70;2831396;83;21012;-92
2022/10/10 06:50:08;;;;;;;27.15;13.00;;;;;;;9.11;98.44;100697.67;2825396;82;21187;-92
2022/10/10 06:54:10;;;;;;;16.37;12.60;;;;;;;9.26;97.99;100700.59;2803440;82;21187;-91
2022/10/10 06:58:13;;;;;;;23.83;14.43;;;;;;;9.39;97.55;100709.87;2833574;81;21583;-93
2022/10/10 07:02:14;;;;;;;20.25;14.60;;;;;;;9.67;97.68;100702.59;2842294;81;21076;-91
2022/10/10 07:06:17;;;;;;;25.02;16.30;;;;;;;9.71;98.90;100695.26;2832908;82;21027;-90
2022/10/10 07:10:18;;;;;;;19.92;11.97;;;;;;;9.88;97.28;100697.19;2752603;84;21092;-92
2022/10/10 07:14:19;;;;;;;18.00;12.78;;;;;;;9.90;97.44;100689.45;2788383;83;21124;-92
2022/10/10 07:18:21;;;;;;;29.23;16.25;;;;;;;9.94;97.26;100694.07;2842353;82;21029;-92
2022/10/10 07:22:22;;;;;;;16.07;13.45;;;;;;;10.17;97.27;100687.08;2836910;82;21035;-92
2022/10/10 07:26:27;;;;;;;17.70;12.70;;;;;;;10.36;97.07;100686.55;2809130;82;21029;-92
2022/10/10 07:30:27;;;;;;;22.27;16.17;;;;;;;10.49;96.74;100686.99;2856821;81;21100;-91
2022/10/10 07:34:28;;;;;;;20.77;14.55;;;;;;;10.74;96.53;100685.13;2844299;82;21028;-92
2022/10/10 07:38:29;;;;;;;25.45;16.05;;;;;;;10.93;95.78;100685.41;2820580;82;21084;-89
2022/10/10 07:42:30;;;;;;;27.55;16.73;;;;;;;11.20;94.80;100678.92;2842853;82;21063;-90
2022/10/10 07:46:32;;;;;;;24.10;13.75;;;;;;;11.53;94.35;100673.20;2838627;82;20997;-91
2022/10/10 07:50:33;;;;;;;24.50;16.85;;;;;;;11.67;93.94;100675.27;2789945;82;21051;-91
2022/10/10 07:54:34;;;;;;;19.62;11.65;;;;;;;12.02;93.03;100663.59;2859874;81;21019;-91
2022/10/10 07:58:36;;;;;;;20.05;14.53;;;;;;;12.20;91.13;100658.55;2833758;81;21010;-92
2022/10/10 08:02:37;;;;;;;21.65;15.63;;;;;;;12.52;90.05;100657.68;2873494;81;21091;-92
2022/10/10 08:06:38;;;;;;;24.45;17.48;;;;;;;12.75;88.00;100662.89;2837155;82;20979;-91
2022/10/10 08:33:16;;;;;;;9.98;7.95;;;;;;;13.74;88.61;100645.45;2828420;82;21597;-92
2022/10/10 08:37:17;;;;;;;15.80;9.70;;;;;;;13.80;85.84;100631.55;2844027;82;20979;-91
2022/10/10 08:41:33;;;;;;;13.35;9.53;;;;;;;13.74;87.72;100633.42;2795959;83;20975;-91
2022/10/10 08:45:37;;;;;;;13.20;9.90;;;;;;;13.75;86.65;100635.11;2846731;82;21687;-91
2022/10/10 08:49:49;;;;;;;10.68;8.15;;;;;;;13.82;89.24;100626.91;2725522;85;21017;-92
2022/10/10 08:53:54;;;;;;;13.35;9.40;;;;;;;13.91;85.92;100629.72;2836637;83;21037;-90
2022/10/10 08:58:04;;;;;;;13.35;9.80;;;;;;;13.97;85.93;100619.82;2744629;85;21842;-90
2022/10/10 09:02:36;;;;;;;19.45;14.80;;;;;;;14.11;87.09;100615.37;2732359;85;21022;-89
2022/10/10 09:07:23;;;;;;;23.20;14.50;;;;;;;14.27;86.58;100607.27;2821159;82;21019;-91
2022/10/10 09:11:47;;;;;;;14.40;10.28;;;;;;;14.37;86.36;100601.91;2731032;84;21074;-92
2022/10/10 09:15:57;;;;;;;26.45;18.77;;;;;;;14.55;86.52;100598.84;2761594;84;21656;-91
2022/10/10 09:20:19;;;;;;;14.47;9.90;;;;;;;14.78;86.91;100593.69;2741652;85;21032;-92
2022/10/10 09:24:34;;;;;;;16.67;10.95;;;;;;;14.97;83.49;100589.60;2843815;82;21004;-92
2022/10/10 09:28:55;;;;;;;16.95;10.08;;;;;;;15.06;81.96;100588.36;2811482;82;21093;-89
2022/10/10 09:33:02;;;;;;;15.72;8.05;;;;;;;15.23;82.59;100582.21;2819473;83;21133;-90
2022/10/10 09:37:14;;;;;;;11.88;8.48;;;;;;;15.37;81.53;100576.02;2843892;83;21050;-92
2022/10/10 09:41:37;;;;;;;19.35;9.03;;;;;;;15.50;83.27;100576.47;2849177;81;21075;-92
2022/10/10 09:45:47;;;;;;;12.90;8.15;;;;;;;15.70;80.29;100563.79;2842421;82;21130;-89
2022/10/10 09:49:48;;;;;;;9.35;6.78;;;;;;;15.92;80.87;100559.50;2838326;82;21120;-90
2022/10/10 09:53:49;;;;;;;12.60;8.50;;;;;;;16.00;83.20;100555.53;2818625;82;21336;-90
2022/10/10 09:57:54;;;;;;;15.10;8.18;;;;;;;16.17;80.51;100549.79;2746137;85;21099;-91
2022/10/10 10:02:11;;;;;;;13.15;7.20;;;;;;;16.25;80.05;100549.02;2807928;83;21077;-90
2022/10/10 10:06:14;;;;;;;11.83;7.30;;;;;;;16.29;78.76;100549.03;2812952;82;21598;-92
2022/10/10 10:10:29;;;;;;;7.55;5.50;;;;;;;16.20;79.66;100536.57;2847538;81;21094;-92
2022/10/10 10:14:37;;;;;;;10.35;7.85;;;;;;;16.32;77.18;100525.93;2764736;84;21065;-90
2022/10/10 10:18:43;;;;;;;11.22;8.53;;;;;;;16.34;77.43;100522.59;2758478;84;21510;-92
2022/10/10 10:22:46;;;;;;;11.57;8.30;;;;;;;16.38;76.92;100521.27;2785225;84;21070;-92
2022/10/10 10:26:48;;;;;;;8.68;6.53;;;;;;;16.45;76.36;100519.27;2783802;84;21055;-91
2022/10/10 10:30:53;;;;;;;9.08;7.28;;;;;;;16.40;76.41;100516.58;2758639;85;21143;-91
2022/10/10 10:35:21;;;;;;;11.85;6.70;;;;;;;16.40;77.48;100517.91;2784757;83;21087;-91
2022/10/10 10:39:37;;;;;;;15.58;8.33;;;;;;;16.49;77.74;100520.63;2769382;83;21095;-92
2022/10/10 10:44:13;;;;;;;16.90;9.68;;;;;;;16.69;78.15;100515.37;2777519;84;21035;-92
2022/10/10 10:48:45;;;;;;;10.80;8.97;;;;;;;16.83;77.49;100506.38;2763868;84;21627;-91
2022/10/10 10:53:19;;;;;;;12.40;9.33;;;;;;;17.06;78.28;100503.12;2736185;85;21039;-91
2022/10/10 10:57:41;;;;;;;12.55;7.55;;;;;;;17.29;77.71;100491.27;2769732;83;21063;-92
2022/10/10 11:02:00;;;;;;;11.33;6.95;;;;;;;17.41;77.43;100488.61;2724565;85;21139;-92
2022/10/10 11:06:39;;;;;;;11.35;7.72;;;;;;;17.64;75.00;100479.89;2741672;84;21120;-91
2022/10/10 11:10:55;;;;;;;8.95;6.33;;;;;;;17.76;76.73;100463.39;2733218;85;21574;-90
2022/10/10 11:15:20;;;;;;;11.25;5.67;;;;;;;17.85;76.70;100444.91;2753765;84;21552;-92
2022/10/10 11:19:42;;;;;;;7.53;5.45;;;;;;;17.90;76.63;100437.67;2767711;83;21620;-92
2022/10/10 11:24:10;;;;;;;5.60;4.00;;;;;;;18.08;74.91;100421.34;2832101;82;21596;-91
2022/10/10 11:28:19;;;;;;;10.38;5.17;;;;;;;18.25;73.02;100421.64;2837146;82;21856;-91
2022/10/10 11:32:29;;;;;;;7.37;3.85;;;;;;;18.44;71.88;100418.20;2847959;82;21549;-91
2022/10/10 11:36:35;;;;;;;8.00;4.50;;;;;;;18.69;71.28;100405.47;2841186;82;21061;-91
2022/10/10 11:40:45;;;;;;;6.12;3.55;;;;;;;18.85;71.06;100411.77;2844851;82;21106;-91
2022/10/10 11:45:00;;;;;;;7.35;4.10;;;;;;;18.79;71.17;100405.75;2750240;85;21095;-91
2022/10/10 11:49:22;;;;;;;5.90;4.23;;;;;;;18.75;71.60;100400.39;2752654;85;21020;-91
2022/10/10 11:53:38;;;;;;;9.98;4.55;;;;;;;18.67;72.12;100359.02;2834930;82;21567;-92
2022/10/10 11:58:09;;;;;;;7.97;4.67;;;;;;;19.06;74.12;100387.41;2838877;82;21065;-91
2022/10/10 12:02:24;;;;;;;7.37;3.83;;;;;;;19.09;73.16;100385.73;2829145;82;21596;-91
2022/10/10 12:06:39;;;;;;;6.42;4.37;;;;;;;19.11;71.69;100393.94;2847203;82;21035;-91
2022/10/10 12:10:58;;;;;;;4.90;4.13;;;;;;;19.19;68.60;100389.53;2838999;82;21066;-92
2022/10/10 12:15:03;;;;;;;7.45;4.37;;;;;;;19.38;70.52;100385.48;2750286;85;21166;-92
2022/10/10 12:19:20;;;;;;;10.10;4.00;;;;;;;19.40;69.26;100367.27;2752345;85;21102;-91
2022/10/10 12:23:29;;;;;;;6.62;4.05;;;;;;;19.68;73.38;100355.89;2762485;85;21032;-92
2022/10/10 12:27:48;;;;;;;7.75;3.62;;;;;;;19.91;70.19;100365.77;2762934;85;21104;-90
2022/10/10 12:31:55;;;;;;;7.40;4.05;;;;;;;20.09;66.75;100365.42;2732069;85;21020;-93
2022/10/10 12:35:56;;;;;;;5.22;4.47;;;;;;;20.11;67.50;100366.06;2750102;83;21086;-91
2022/10/10 12:40:08;;;;;;;6.30;3.80;;;;;;;20.05;65.59;100356.02;2754096;85;21626;-91
2022/10/10 12:44:36;;;;;;;4.40;3.67;;;;;;;19.90;66.58;100354.65;2761004;85;21510;-87
2022/10/10 12:48:37;;;;;;;6.92;4.12;;;;;;;19.98;69.46;100355.92;2752551;85;21089;-92
2022/10/10 12:52:49;;;;;;;7.35;4.28;;;;;;;19.98;66.20;100354.08;2759115;84;21049;-93
2022/10/10 12:56:55;;;;;;;8.90;4.17;;;;;;;19.90;70.79;100347.38;2746889;84;21209;-90
2022/10/10 13:01:01;;;;;;;6.45;4.37;;;;;;;19.69;68.17;100345.42;2774908;84;21613;-92
2022/10/10 13:05:03;;;;;;;8.13;5.20;;;;;;;19.62;69.06;100344.46;2764254;84;22163;-90
2022/10/10 13:09:19;;;;;;;5.50;4.45;;;;;;;19.72;69.53;100337.45;2735332;84;21051;-89
2022/10/10 13:13:20;;;;;;;4.75;4.25;;;;;;;19.75;69.64;100332.53;2750393;84;21213;-91
2022/10/10 13:17:27;;;;;;;8.38;5.47;;;;;;;19.78;69.37;100321.89;2771683;84;21132;-90
2022/10/10 13:21:32;;;;;;;12.00;5.83;;;;;;;19.89;70.21;100319.23;2737943;84;21150;-90
2022/10/10 13:25:36;;;;;;;10.63;5.67;;;;;;;19.91;68.28;100313.13;2687707;86;21070;-90
2022/10/10 13:29:39;;;;;;;5.05;3.50;;;;;;;19.95;68.32;100317.16;2817137;83;21020;-90
2022/10/10 13:33:41;;;;;;;7.90;5.35;;;;;;;20.02;69.41;100319.42;2812103;83;21079;-89
2022/10/10 13:37:44;;;;;;;6.40;4.15;;;;;;;20.06;68.72;100322.59;2796700;82;21071;-90
2022/10/10 13:41:47;;;;;;;12.25;5.70;;;;;;;20.07;68.82;100315.67;2710578;86;21063;-85
2022/10/10 13:45:56;;;;;;;11.05;6.15;;;;;;;20.11;68.30;100311.56;2689898;86;21023;-89
2022/10/10 13:49:57;;;;;;;6.00;5.15;;;;;;;20.18;69.66;100310.30;2771470;84;21189;-89
2022/10/10 13:53:58;;;;;;;4.33;3.90;;;;;;;20.29;69.04;100313.53;2697343;85;21625;-89
2022/10/10 13:58:03;;;;;;;7.25;3.80;;;;;;;20.31;67.51;100315.02;2746419;83;21046;-90
2022/10/10 14:02:15;;;;;;;5.22;4.42;;;;;;;20.22;68.17;100316.14;2731585;85;21082;-88
2022/10/10 14:06:23;;;;;;;6.05;3.50;;;;;;;19.94;65.36;100308.73;2748877;84;21005;-90
2022/10/10 14:10:27;;;;;;;6.20;4.45;;;;;;;19.64;65.69;100308.69;2756312;84;21063;-88
2022/10/10 14:14:46;;;;;;;6.62;4.37;;;;;;;19.52;67.01;100305.11;2725901;85;21673;-87
2022/10/10 14:18:47;;;;;;;4.05;3.15;;;;;;;19.56;68.80;100308.30;2743701;84;21024;-89
2022/10/10 14:22:50;;;;;;;6.12;4.65;;;;;;;19.46;68.54;100304.52;2757191;84;21084;-88
2022/10/10 14:26:51;;;;;;;8.23;3.42;;;;;;;19.22;67.94;100306.40;2752415;84;21551;-90
2022/10/10 14:30:52;;;;;;;9.55;5.20;;;;;;;19.13;67.10;100306.98;2754085;83;21027;-89
2022/10/10 14:34:53;;;;;;;6.78;4.65;;;;;;;19.01;68.52;100295.47;2783983;84;21024;-88
2022/10/10 14:38:55;;;;;;;10.00;4.80;;;;;;;18.81;69.67;100294.58;2724134;85;21063;-87
2022/10/10 14:42:56;;;;;;;7.45;4.45;;;;;;;18.64;70.62;100289.83;2752633;84;21062;-85
2022/10/10 14:46:57;;;;;;;9.93;4.92;;;;;;;18.50;71.82;100284.70;2783184;84;21102;-89
2022/10/10 14:50:58;;;;;;;7.78;4.72;;;;;;;18.43;72.79;100281.88;2751295;85;21080;-89
2022/10/10 14:54:59;;;;;;;8.38;5.87;;;;;;;18.30;73.15;100279.77;2799170;83;21106;-85
2022/10/10 14:59:00;;;;;;;6.78;5.30;;;;;;;18.25;72.64;100274.05;2823840;81;21089;-90
2022/10/10 15:03:01;;;;;;;10.00;6.03;;;;;;;18.16;72.87;100275.95;2841052;82;21142;-89
2022/10/10 15:07:03;;;;;;;6.70;4.92;;;;;;;18.09;74.55;100278.53;2828571;82;21059;-89
2022/10/10 15:11:04;;;;;;;5.92;3.52;;;;;;;18.02;74.36;100272.67;2830321;83;21028;-90
2022/10/10 15:15:07;;;;;;;9.48;5.60;;;;;;;17.97;74.46;100273.98;2812772;83;20987;-88
2022/10/10 15:19:09;;;;;;;4.97;4.58;;;;;;;17.88;74.16;100278.23;2835305;83;21039;-88
2022/10/10 15:23:10;;;;;;;10.05;6.83;;;;;;;17.77;74.57;100278.95;2825927;82;21096;-86
2022/10/10 15:27:11;;;;;;;14.10;6.70;;;;;;;17.63;75.54;100278.31;2706123;86;21066;-88
2022/10/10 15:31:12;;;;;;;13.48;5.17;;;;;;;17.55;76.00;100273.80;2724194;85;21038;-86
2022/10/10 15:35:18;;;;;;;5.67;4.45;;;;;;;17.41;77.61;100271.31;2727827;86;21066;-88
2022/10/10 15:39:19;;;;;;;9.73;6.55;;;;;;;17.28;78.16;100272.66;2730690;85;21076;-86
2022/10/10 15:43:20;;;;;;;10.55;6.12;;;;;;;17.22;78.62;100267.16;2826851;82;21020;-87
2022/10/10 15:47:21;;;;;;;9.75;5.42;;;;;;;17.13;78.84;100273.05;2784964;82;21029;-86
2022/10/10 15:51:22;;;;;;;10.65;6.72;;;;;;;16.95;80.01;100270.48;2749081;85;21059;-85
2022/10/10 15:55:24;;;;;;;25.60;6.72;;;;;;;16.77;80.69;100271.48;2747968;83;21091;-89
2022/10/10 15:59:25;;;;;;;8.35;6.37;;;;;;;16.63;81.40;100275.67;2728656;85;22359;-89
2022/10/10 16:03:26;;;;;;;9.50;7.40;;;;;;;16.47;82.64;100278.33;2725798;85;21020;-89
2022/10/10 16:07:28;;;;;;;9.88;6.72;;;;;;;16.38;82.40;100288.20;2831226;82;21560;-90
2022/10/10 16:11:30;;;;;;;6.37;5.78;;;;;;;16.19;83.61;100287.48;2812665;82;21051;-88
2022/10/10 16:15:32;;;;;;;9.35;5.78;;;;;;;16.08;83.53;100281.91;2829049;82;21027;-88
2022/10/10 16:19:33;;;;;;;10.65;7.47;;;;;;;15.92;83.96;100286.72;2832788;82;21063;-90
2022/10/10 16:23:36;;;;;;;8.03;6.50;;;;;;;15.77;85.17;100289.62;2839503;82;21033;-89
2022/10/10 16:27:38;;;;;;;7.78;6.87;;;;;;;15.73;85.05;100286.44;2736351;85;21051;-89
2022/10/10 16:31:41;;;;;;;12.07;8.05;;;;;;;15.68;85.49;100288.25;2756580;83;21074;-88
2022/10/10 16:35:43;;;;;;;12.35;8.78;;;;;;;15.66;85.23;100292.08;2750944;84;21039;-89
2022/10/10 16:39:45;;;;;;;14.53;9.68;;;;;;;15.67;84.90;100295.95;2758912;84;21077;-92
2022/10/10 16:43:47;;;;;;;15.45;11.97;;;;;;;15.64;85.03;100290.06;2747249;84;21106;-91
2022/10/10 16:47:48;;;;;;;22.42;13.03;;;;;;;15.64;84.72;100294.94;2730098;83;21135;-92
2022/10/10 16:51:50;;;;;;;15.30;9.75;;;;;;;15.63;84.99;100297.77;2707824;85;21079;-91
2022/10/10 16:55:51;;;;;;;10.32;9.23;;;;;;;15.59;84.64;100299.08;2762407;84;21084;-88
2022/10/10 16:59:52;;;;;;;15.10;8.88;;;;;;;15.55;85.04;100303.43;2767124;84;21009;-90
2022/10/10 17:03:54;;;;;;;10.63;7.97;;;;;;;15.51;85.10;100314.10;2820759;82;21120;-92
2022/10/10 17:07:55;;;;;;;16.65;9.45;;;;;;;15.49;85.19;100308.06;2842269;82;21653;-91
2022/10/10 17:11:56;;;;;;;12.40;9.03;;;;;;;15.49;85.29;100309.91;2822659;82;21022;-90
2022/10/10 17:15:57;;;;;;;21.93;9.95;;;;;;;15.44;85.74;100309.04;2769018;82;21039;-90
2022/10/10 17:19:58;;;;;;;12.93;9.10;;;;;;;15.40;85.83;100305.82;2803063;83;21094;-91
2022/10/10 17:24:00;;;;;;;15.05;8.98;;;;;;;15.41;85.51;100313.38;2846945;82;21022;-91
2022/10/10 17:28:02;;;;;;;26.27;9.88;;;;;;;15.40;85.70;100317.05;2740639;85;21062;-91
2022/10/10 17:32:04;;;;;;;9.55;7.90;;;;;;;15.38;85.83;100313.70;2751228;85;21037;-92
2022/10/10 17:36:14;;;;;;;12.05;8.95;;;;;;;15.35;86.05;100318.86;2716116;85;21075;-92
2022/10/10 17:40:16;;;;;;;11.68;9.30;;;;;;;15.33;85.84;100318.17;2713205;86;21096;-90
2022/10/10 17:44:18;;;;;;;14.83;10.03;;;;;;;15.28;86.78;100323.17;2758708;84;21050;-91
2022/10/10 17:48:20;;;;;;;15.90;10.60;;;;;;;15.20;87.15;100322.61;2706422;86;21099;-91
2022/10/10 17:52:23;;;;;;;13.32;9.85;;;;;;;15.12;87.52;100318.50;2713655;86;21095;-89
2022/10/10 17:56:26;;;;;;;15.98;11.43;;;;;;;15.07;88.35;100324.34;2719966;86;21079;-90
2022/10/10 18:00:28;;;;;;;20.65;12.95;;;;;;;15.07;88.37;100321.67;2748918;85;21082;-89
2022/10/10 18:04:30;;;;;;;22.95;15.85;;;;;;;15.08;88.53;100325.17;2756983;83;21078;-90
2022/10/10 18:08:32;;;;;;;21.55;16.55;;;;;;;15.03;89.90;100322.13;2753628;84;21086;-90
2022/10/10 18:12:34;;;;;;;26.70;19.32;;;;;;;14.95;90.55;100333.12;2839155;82;20998;-90
2022/10/10 18:16:36;;;;;;;20.57;14.90;;;;;;;14.94;90.19;100324.74;2821830;82;21011;-90
2022/10/10 18:20:38;;;;;;;12.37;8.10;;;;;;;14.98;90.22;100331.95;2841161;82;21100;-90
2022/10/10 18:24:40;;;;;;;16.45;9.63;;;;;;;15.05;90.29;100336.20;2745092;85;21044;-91
2022/10/10 18:28:42;;;;;;;12.75;8.43;;;;;;;15.09;90.13;100335.75;2711310;86;21666;-93
2022/10/10 18:32:44;;;;;;;12.07;7.47;;;;;;;15.13;89.54;100334.44;2803081;83;21038;-91
2022/10/10 18:36:46;;;;;;;9.55;6.58;;;;;;;15.14;89.49;100339.31;2657733;85;21090;-93
2022/10/10 18:40:47;;;;;;;9.30;7.15;;;;;;;15.10;90.22;100345.95;2722777;79;21207;-90
2022/10/10 18:44:48;;;;;;;11.43;6.67;;;;;;;15.14;90.12;100347.34;2767048;84;21067;-90
2022/10/10 18:48:51;;;;;;;9.70;5.75;;;;;;;15.20;90.04;100341.36;2783974;83;21087;-90
2022/10/10 18:52:55;;;;;;;8.73;5.90;;;;;;;15.20;89.65;100350.73;2779999;84;21076;-92
2022/10/10 18:56:55;;;;;;;9.03;6.35;;;;;;;15.15;89.20;100353.05;2809166;82;21542;-92
2022/10/10 19:00:59;;;;;;;8.00;5.85;;;;;;;15.13;89.27;100346.97;2785084;81;21562;-93
2022/10/10 19:05:00;;;;;;;12.10;6.87;;;;;;;15.08;89.28;100352.81;2863260;80;21102;-90
2022/10/10 19:09:03;;;;;;;10.75;6.45;;;;;;;15.05;89.16;100346.91;2779636;81;21006;-90
2022/10/10 19:13:05;;;;;;;13.95;6.72;;;;;;;15.00;89.11;100351.38;2865610;81;21062;-93